Time;durP1;ratioP1;P1;durP2;ratioP2;P2;SDS_P1;SDS_P2;PMS_P1;PMS_P2;Temp;Humidity;BMP_temperature;BMP_pressure;BME280_temperature;BME280_humidity;BME280_pressure;Samples;Min_cycle;Max_cycle;Signal;HPM_P1;HPM_P2
2023/09/16 00:02:12;;;;;;;21.92;18.38;;;;;;;;;;4982125;28;20037;-72
2023/09/16 00:04:38;;;;;;;23.42;18.65;;;;;;;;;;4981454;28;20057;-69
2023/09/16 00:07:03;;;;;;;19.90;17.60;;;;;;;;;;4979355;28;20388;-73
2023/09/16 00:09:29;;;;;;;20.05;16.90;;;;;;;;;;4987381;28;20448;-74
2023/09/16 00:11:55;;;;;;;20.77;17.58;;;;;;;;;;4981847;28;20508;-73
2023/09/16 00:14:22;;;;;;;19.17;17.08;;;;;;;;;;4982118;28;20100;-72
2023/09/16 00:16:49;;;;;;;19.88;17.75;;;;;;;;;;4998495;28;20042;-72
2023/09/16 00:19:15;;;;;;;21.67;18.75;;;;;;;;;;4983998;28;20058;-72
2023/09/16 00:21:41;;;;;;;20.77;18.58;;;;;;;;;;4982431;28;20066;-72
2023/09/16 00:24:11;;;;;;;21.70;19.40;;;;;;;;;;4979476;28;20103;-74
2023/09/16 00:26:40;;;;;;;23.52;19.35;;;;;;;;;;4999582;28;20034;-72
2023/09/16 00:29:06;;;;;;;22.60;19.50;;;;;;;;;;4982903;28;20030;-72
2023/09/16 00:31:33;;;;;;;23.42;18.90;;;;;;;;;;4983857;28;20096;-71
2023/09/16 00:33:59;;;;;;;20.55;18.20;;;;;;;;;;4981009;28;20034;-72
2023/09/16 00:36:24;;;;;;;22.52;19.17;;;;;;;;;;4998351;28;20065;-72
2023/09/16 00:38:50;;;;;;;21.67;19.38;;;;;;;;;;4983097;28;20026;-72
2023/09/16 00:41:25;;;;;;;23.60;19.95;;;;;;;;;;4999015;28;20030;-74
2023/09/16 00:43:51;;;;;;;21.92;19.00;;;;;;;;;;5002269;28;20042;-71
2023/09/16 00:46:17;;;;;;;25.17;20.40;;;;;;;;;;5001740;28;20030;-71
2023/09/16 00:48:45;;;;;;;26.27;20.95;;;;;;;;;;4985913;28;20052;-72
2023/09/16 00:51:31;;;;;;;25.70;21.15;;;;;;;;;;4983914;28;20049;-73
2023/09/16 00:53:57;;;;;;;27.08;20.88;;;;;;;;;;4983400;28;20030;-71
2023/09/16 00:56:27;;;;;;;28.65;21.77;;;;;;;;;;4985663;28;20046;-72
2023/09/16 00:58:55;;;;;;;24.80;21.02;;;;;;;;;;4983993;28;20173;-72
2023/09/16 01:01:24;;;;;;;24.30;20.77;;;;;;;;;;4987904;28;20081;-69
2023/09/16 01:03:53;;;;;;;27.52;21.63;;;;;;;;;;4987714;28;20385;-70
2023/09/16 01:06:19;;;;;;;28.60;21.30;;;;;;;;;;4985688;28;20046;-70
2023/09/16 01:08:46;;;;;;;26.92;21.33;;;;;;;;;;4984747;28;20030;-71
2023/09/16 01:11:12;;;;;;;26.65;21.98;;;;;;;;;;4984114;28;20120;-70
2023/09/16 01:13:39;;;;;;;26.92;20.63;;;;;;;;;;5001979;28;20452;-70
2023/09/16 01:16:20;;;;;;;24.30;19.83;;;;;;;;;;4984561;28;20037;-71
2023/09/16 01:18:54;;;;;;;27.55;19.75;;;;;;;;;;4998599;28;20042;-70
2023/09/16 01:21:22;;;;;;;21.80;18.85;;;;;;;;;;4986045;28;20578;-70
2023/09/16 01:23:47;;;;;;;21.42;18.52;;;;;;;;;;4992896;28;20038;-70
2023/09/16 01:26:14;;;;;;;22.73;19.42;;;;;;;;;;4981271;28;20038;-71
2023/09/16 01:28:40;;;;;;;25.52;20.38;;;;;;;;;;4998471;28;20042;-71
2023/09/16 01:31:07;;;;;;;23.17;20.38;;;;;;;;;;5000920;28;20045;-71
2023/09/16 01:33:36;;;;;;;23.92;19.45;;;;;;;;;;4985953;28;20026;-71
2023/09/16 01:36:16;;;;;;;23.10;19.55;;;;;;;;;;4985062;28;20029;-69
2023/09/16 01:38:44;;;;;;;25.48;19.92;;;;;;;;;;4985789;28;20067;-70
2023/09/16 01:41:12;;;;;;;27.75;20.70;;;;;;;;;;5001008;28;20034;-71
2023/09/16 01:43:44;;;;;;;24.85;20.67;;;;;;;;;;4985679;28;20038;-71
2023/09/16 01:46:13;;;;;;;27.73;22.20;;;;;;;;;;4983067;28;20038;-73
2023/09/16 01:48:39;;;;;;;27.73;21.40;;;;;;;;;;5000163;28;20045;-73
2023/09/16 01:51:05;;;;;;;25.10;21.63;;;;;;;;;;5002183;28;20038;-70
2023/09/16 01:53:32;;;;;;;30.17;21.67;;;;;;;;;;4987014;28;20034;-73
2023/09/16 01:56:00;;;;;;;27.50;21.75;;;;;;;;;;4984221;28;20045;-72
2023/09/16 01:58:34;;;;;;;25.95;21.67;;;;;;;;;;5001172;28;20034;-73
2023/09/16 02:01:08;;;;;;;24.90;20.50;;;;;;;;;;5000336;28;20048;-73
2023/09/16 02:03:34;;;;;;;24.80;20.67;;;;;;;;;;4996808;28;20042;-74
2023/09/16 02:06:06;;;;;;;27.92;22.13;;;;;;;;;;4983518;28;20057;-74
2023/09/16 02:08:32;;;;;;;25.35;22.13;;;;;;;;;;4980869;28;20038;-71
2023/09/16 02:10:58;;;;;;;29.20;22.50;;;;;;;;;;4997932;28;20114;-74
2023/09/16 02:13:24;;;;;;;28.80;22.20;;;;;;;;;;4987107;28;20039;-70
2023/09/16 02:15:50;;;;;;;31.27;21.80;;;;;;;;;;4999709;28;20072;-71
2023/09/16 02:18:17;;;;;;;26.38;20.80;;;;;;;;;;4998300;28;20087;-69
2023/09/16 02:20:44;;;;;;;28.45;23.02;;;;;;;;;;4998328;28;20037;-69
2023/09/16 02:23:09;;;;;;;28.48;22.80;;;;;;;;;;4980920;28;20574;-71
2023/09/16 02:25:35;;;;;;;26.90;22.55;;;;;;;;;;4995976;28;20051;-72
2023/09/16 02:28:01;;;;;;;29.38;23.63;;;;;;;;;;4995129;28;20050;-72
2023/09/16 02:30:27;;;;;;;28.88;22.63;;;;;;;;;;4973354;28;20046;-72
2023/09/16 02:32:52;;;;;;;27.80;21.58;;;;;;;;;;4981041;28;20038;-71
2023/09/16 02:35:18;;;;;;;26.40;21.38;;;;;;;;;;4983444;28;20041;-72
2023/09/16 02:37:44;;;;;;;25.40;20.90;;;;;;;;;;4982939;28;20088;-69
2023/09/16 02:40:10;;;;;;;25.70;20.08;;;;;;;;;;4981065;28;20421;-70
2023/09/16 02:42:36;;;;;;;25.73;21.45;;;;;;;;;;4981428;28;20073;-70
2023/09/16 02:45:02;;;;;;;26.20;21.30;;;;;;;;;;4999413;28;20069;-70
2023/09/16 02:47:30;;;;;;;28.10;21.45;;;;;;;;;;4994958;28;20030;-71
2023/09/16 02:49:57;;;;;;;23.27;20.38;;;;;;;;;;4998585;28;20030;-70
2023/09/16 02:52:24;;;;;;;24.15;20.15;;;;;;;;;;4983909;28;20041;-70
2023/09/16 02:54:50;;;;;;;24.30;21.70;;;;;;;;;;4978500;28;20030;-71
2023/09/16 02:57:15;;;;;;;26.42;20.63;;;;;;;;;;4980477;28;20148;-72
2023/09/16 02:59:41;;;;;;;23.10;20.42;;;;;;;;;;5000269;28;20117;-72
2023/09/16 03:02:07;;;;;;;25.25;22.48;;;;;;;;;;5000027;28;20169;-73
2023/09/16 03:04:33;;;;;;;29.20;20.70;;;;;;;;;;4993566;28;20442;-71
2023/09/16 03:06:59;;;;;;;25.95;21.98;;;;;;;;;;4980966;28;20112;-71
2023/09/16 03:09:24;;;;;;;29.08;22.10;;;;;;;;;;4996935;28;20435;-71
2023/09/16 03:11:50;;;;;;;29.38;21.70;;;;;;;;;;4976332;28;20419;-72
2023/09/16 03:14:16;;;;;;;30.10;21.33;;;;;;;;;;5002089;28;20120;-73
2023/09/16 03:16:42;;;;;;;31.98;24.65;;;;;;;;;;4999265;28;20034;-72
2023/09/16 03:19:17;;;;;;;34.33;23.23;;;;;;;;;;4985895;28;20038;-71
2023/09/16 03:21:43;;;;;;;29.88;24.13;;;;;;;;;;4987225;28;20046;-72
2023/09/16 03:24:09;;;;;;;35.10;24.10;;;;;;;;;;4985300;28;20046;-71
2023/09/16 03:26:35;;;;;;;30.58;23.48;;;;;;;;;;4997427;28;20373;-71
2023/09/16 03:29:01;;;;;;;33.22;23.95;;;;;;;;;;4981780;28;20045;-72
2023/09/16 03:31:28;;;;;;;27.58;22.02;;;;;;;;;;4979863;28;20132;-73
2023/09/16 03:33:57;;;;;;;28.88;21.88;;;;;;;;;;4997851;28;20499;-72
2023/09/16 03:36:23;;;;;;;30.27;22.73;;;;;;;;;;4966749;28;20058;-72
2023/09/16 03:38:50;;;;;;;28.33;21.08;;;;;;;;;;4986840;28;20100;-70
2023/09/16 03:41:16;;;;;;;32.22;22.83;;;;;;;;;;4985351;28;20070;-70
2023/09/16 03:43:46;;;;;;;33.97;22.98;;;;;;;;;;5010594;28;20038;-70
2023/09/16 03:46:12;;;;;;;32.30;23.23;;;;;;;;;;5004787;28;20555;-70
2023/09/16 03:48:38;;;;;;;33.30;22.88;;;;;;;;;;5005021;28;20050;-70
2023/09/16 03:51:07;;;;;;;30.25;22.38;;;;;;;;;;4982938;28;20477;-72
2023/09/16 03:53:37;;;;;;;30.23;21.85;;;;;;;;;;5005032;28;20030;-70
2023/09/16 03:56:05;;;;;;;36.38;22.67;;;;;;;;;;5003216;28;20084;-69
2023/09/16 03:58:33;;;;;;;32.10;22.95;;;;;;;;;;4999784;28;20100;-73
2023/09/16 04:00:58;;;;;;;33.08;22.48;;;;;;;;;;4986478;28;20041;-72
2023/09/16 04:03:24;;;;;;;22.45;18.60;;;;;;;;;;4982307;28;20038;-72
2023/09/16 04:05:54;;;;;;;25.80;21.23;;;;;;;;;;5001120;28;20590;-70
2023/09/16 04:08:20;;;;;;;26.02;19.83;;;;;;;;;;4998958;28;20037;-69
2023/09/16 04:10:45;;;;;;;25.10;20.25;;;;;;;;;;4985099;28;20050;-71
2023/09/16 04:13:13;;;;;;;28.98;21.92;;;;;;;;;;4984755;28;20039;-72
2023/09/16 04:15:38;;;;;;;27.77;22.02;;;;;;;;;;4982465;28;20042;-73
2023/09/16 04:18:04;;;;;;;22.05;17.83;;;;;;;;;;5001517;28;20046;-71
2023/09/16 04:20:30;;;;;;;30.30;21.90;;;;;;;;;;5004182;28;20053;-72
2023/09/16 04:22:55;;;;;;;31.25;22.30;;;;;;;;;;5002378;28;20139;-72
2023/09/16 04:25:22;;;;;;;29.17;22.48;;;;;;;;;;4982557;28;20068;-72
2023/09/16 04:27:48;;;;;;;28.25;22.15;;;;;;;;;;4969069;28;20057;-73
2023/09/16 04:30:14;;;;;;;32.63;22.13;;;;;;;;;;4964782;28;20046;-73
2023/09/16 04:32:43;;;;;;;31.88;23.42;;;;;;;;;;4997053;28;20035;-73
2023/09/16 04:35:09;;;;;;;31.85;22.15;;;;;;;;;;5000898;28;20069;-73
2023/09/16 04:37:36;;;;;;;28.50;20.77;;;;;;;;;;4999507;28;20042;-71
2023/09/16 04:40:11;;;;;;;30.83;22.90;;;;;;;;;;4996963;28;20039;-72
2023/09/16 04:42:38;;;;;;;31.63;21.65;;;;;;;;;;4997972;28;20092;-72
2023/09/16 04:45:08;;;;;;;30.65;22.77;;;;;;;;;;4982525;28;20345;-74
2023/09/16 04:47:34;;;;;;;30.25;21.23;;;;;;;;;;4980507;28;20041;-72
2023/09/16 04:50:00;;;;;;;32.72;22.40;;;;;;;;;;4998011;28;20030;-73
2023/09/16 04:52:28;;;;;;;29.15;21.48;;;;;;;;;;4985462;28;20038;-72
2023/09/16 04:54:54;;;;;;;34.67;22.30;;;;;;;;;;4998726;28;20049;-72
2023/09/16 04:57:21;;;;;;;31.50;23.27;;;;;;;;;;4997858;28;20070;-73
2023/09/16 04:59:47;;;;;;;34.55;23.42;;;;;;;;;;4981130;28;20114;-73
2023/09/16 05:02:13;;;;;;;36.75;24.23;;;;;;;;;;4983970;28;20686;-71
2023/09/16 05:04:39;;;;;;;38.47;25.13;;;;;;;;;;4983809;28;20045;-71
2023/09/16 05:07:07;;;;;;;34.17;24.30;;;;;;;;;;4994994;28;20043;-73
2023/09/16 05:09:32;;;;;;;31.88;23.55;;;;;;;;;;4998699;28;20041;-71
2023/09/16 05:11:58;;;;;;;34.45;24.45;;;;;;;;;;4966460;28;20061;-72
2023/09/16 05:14:24;;;;;;;27.20;21.90;;;;;;;;;;4979679;28;20061;-71
2023/09/16 05:16:50;;;;;;;30.67;21.15;;;;;;;;;;4983786;28;20868;-69
2023/09/16 05:19:16;;;;;;;31.08;21.90;;;;;;;;;;4967323;28;20030;-70
2023/09/16 05:21:42;;;;;;;34.63;24.38;;;;;;;;;;4999867;28;20041;-70
2023/09/16 05:24:08;;;;;;;34.80;23.00;;;;;;;;;;4981044;28;20031;-72
2023/09/16 05:26:33;;;;;;;28.00;21.40;;;;;;;;;;4998882;28;20944;-71
2023/09/16 05:28:59;;;;;;;29.75;22.33;;;;;;;;;;4982904;28;20057;-72
2023/09/16 05:31:27;;;;;;;28.85;22.88;;;;;;;;;;4996103;28;20414;-71
2023/09/16 05:33:53;;;;;;;32.55;23.27;;;;;;;;;;4982603;28;20031;-71
2023/09/16 05:36:20;;;;;;;29.67;22.70;;;;;;;;;;5004684;28;20087;-70
2023/09/16 05:38:46;;;;;;;32.03;23.48;;;;;;;;;;4999106;28;20042;-70
2023/09/16 05:41:11;;;;;;;32.55;23.50;;;;;;;;;;4982287;28;20039;-71
2023/09/16 05:43:37;;;;;;;31.08;22.92;;;;;;;;;;4983571;28;20100;-72
2023/09/16 05:46:05;;;;;;;30.40;22.80;;;;;;;;;;4999184;28;20026;-71
2023/09/16 05:48:31;;;;;;;31.33;22.93;;;;;;;;;;4999296;28;20073;-70
2023/09/16 05:50:58;;;;;;;35.15;23.45;;;;;;;;;;4983243;28;20061;-73
2023/09/16 05:53:26;;;;;;;34.90;23.65;;;;;;;;;;4998472;28;20109;-72
2023/09/16 05:55:55;;;;;;;33.08;23.67;;;;;;;;;;4968249;28;20037;-71
2023/09/16 05:58:22;;;;;;;31.70;24.38;;;;;;;;;;4996021;28;20042;-72
2023/09/16 06:00:56;;;;;;;34.67;24.45;;;;;;;;;;5001114;28;20437;-71
2023/09/16 06:03:21;;;;;;;32.05;23.25;;;;;;;;;;4981340;28;20133;-72
2023/09/16 06:05:49;;;;;;;33.05;23.33;;;;;;;;;;4985493;28;20121;-71
2023/09/16 06:08:15;;;;;;;30.77;23.38;;;;;;;;;;4991517;28;20038;-71
2023/09/16 06:10:46;;;;;;;34.03;22.88;;;;;;;;;;5008156;28;20061;-71
2023/09/16 06:13:22;;;;;;;28.58;23.70;;;;;;;;;;4985415;28;20075;-72
2023/09/16 06:15:48;;;;;;;29.23;22.83;;;;;;;;;;5007390;28;20046;-71
2023/09/16 06:18:15;;;;;;;32.28;23.48;;;;;;;;;;4972813;28;20515;-71
2023/09/16 06:20:41;;;;;;;32.22;21.95;;;;;;;;;;4997245;28;20034;-72
2023/09/16 06:23:07;;;;;;;26.95;22.10;;;;;;;;;;4979578;28;20030;-72
2023/09/16 06:25:34;;;;;;;33.15;23.05;;;;;;;;;;4995399;28;20030;-73
2023/09/16 06:27:59;;;;;;;28.50;21.80;;;;;;;;;;4997354;28;20045;-72
2023/09/16 06:30:25;;;;;;;30.95;22.33;;;;;;;;;;4996572;28;20034;-73
2023/09/16 06:32:53;;;;;;;32.58;24.55;;;;;;;;;;4995638;28;20045;-73
2023/09/16 06:35:19;;;;;;;27.15;23.05;;;;;;;;;;4997134;28;20114;-72
2023/09/16 06:37:45;;;;;;;29.98;22.08;;;;;;;;;;4980743;28;20671;-73
2023/09/16 06:40:12;;;;;;;27.45;21.85;;;;;;;;;;4980561;28;20027;-74
2023/09/16 06:42:38;;;;;;;28.67;21.90;;;;;;;;;;4979438;28;20038;-73
2023/09/16 06:45:04;;;;;;;26.15;21.55;;;;;;;;;;4995077;28;20064;-72
2023/09/16 06:47:29;;;;;;;23.92;20.90;;;;;;;;;;4996185;28;20112;-72
2023/09/16 06:49:56;;;;;;;24.38;20.13;;;;;;;;;;4980384;28;20045;-73
2023/09/16 06:52:22;;;;;;;25.02;21.25;;;;;;;;;;4980268;28;20085;-72
2023/09/16 06:54:49;;;;;;;20.08;18.05;;;;;;;;;;4983134;28;20050;-73
2023/09/16 06:57:15;;;;;;;21.05;18.63;;;;;;;;;;4980417;28;20522;-73
2023/09/16 06:59:41;;;;;;;19.98;17.88;;;;;;;;;;4976741;28;20030;-72
2023/09/16 07:02:06;;;;;;;20.45;16.38;;;;;;;;;;4996717;28;20045;-74
2023/09/16 07:04:32;;;;;;;18.15;16.35;;;;;;;;;;4976204;28;20038;-73
2023/09/16 07:06:58;;;;;;;16.10;14.60;;;;;;;;;;4981295;28;20042;-74
2023/09/16 07:09:23;;;;;;;15.38;14.07;;;;;;;;;;4980772;28;20046;-74
2023/09/16 07:11:49;;;;;;;15.50;14.20;;;;;;;;;;4977599;28;20034;-73
2023/09/16 07:14:15;;;;;;;15.15;13.80;;;;;;;;;;4979843;28;20057;-75
2023/09/16 07:16:40;;;;;;;15.55;14.15;;;;;;;;;;4981454;28;20037;-74
2023/09/16 07:19:07;;;;;;;16.13;14.50;;;;;;;;;;4987060;28;20049;-74
2023/09/16 07:21:33;;;;;;;15.10;13.60;;;;;;;;;;4986953;28;20038;-73
2023/09/16 07:24:01;;;;;;;14.95;13.65;;;;;;;;;;4983643;28;20038;-73
2023/09/16 07:26:28;;;;;;;15.23;13.30;;;;;;;;;;4986704;28;20065;-72
2023/09/16 07:28:54;;;;;;;14.43;13.13;;;;;;;;;;4987610;28;20114;-72
2023/09/16 07:31:19;;;;;;;14.23;12.73;;;;;;;;;;4985700;28;20639;-72
2023/09/16 07:33:45;;;;;;;14.52;13.13;;;;;;;;;;4984747;28;20092;-74
2023/09/16 07:36:11;;;;;;;13.32;12.13;;;;;;;;;;4986854;28;20065;-73
2023/09/16 07:38:37;;;;;;;13.52;12.38;;;;;;;;;;4988311;28;20124;-73
2023/09/16 07:41:02;;;;;;;12.75;11.65;;;;;;;;;;4984327;28;20391;-73
2023/09/16 07:43:28;;;;;;;14.15;12.65;;;;;;;;;;4988505;28;20037;-70
2023/09/16 07:45:53;;;;;;;13.65;12.23;;;;;;;;;;4987412;28;20045;-70
2023/09/16 07:48:19;;;;;;;14.25;12.85;;;;;;;;;;4988016;28;20093;-71
2023/09/16 07:50:49;;;;;;;13.00;11.80;;;;;;;;;;5000714;28;20039;-72
2023/09/16 07:53:15;;;;;;;13.07;11.88;;;;;;;;;;4971761;28;20050;-71
2023/09/16 07:55:40;;;;;;;12.73;11.63;;;;;;;;;;4986803;28;20399;-72
2023/09/16 07:58:06;;;;;;;13.82;12.52;;;;;;;;;;4987699;28;20034;-72
2023/09/16 08:00:32;;;;;;;14.32;13.02;;;;;;;;;;4983570;28;20038;-73
2023/09/16 08:02:57;;;;;;;14.60;13.20;;;;;;;;;;5003345;28;20031;-72
2023/09/16 08:05:23;;;;;;;13.77;12.48;;;;;;;;;;4986824;28;20053;-73
2023/09/16 08:07:48;;;;;;;13.20;12.10;;;;;;;;;;4985879;28;20120;-72
2023/09/16 08:10:15;;;;;;;14.23;12.50;;;;;;;;;;4987245;28;20097;-73
2023/09/16 08:12:40;;;;;;;11.75;10.75;;;;;;;;;;4985719;28;20022;-72
2023/09/16 08:15:06;;;;;;;12.23;11.13;;;;;;;;;;4986038;28;20395;-73
2023/09/16 08:17:33;;;;;;;12.18;11.05;;;;;;;;;;4985731;28;20509;-71
2023/09/16 08:20:00;;;;;;;12.02;10.85;;;;;;;;;;4988017;28;20042;-70
2023/09/16 08:22:27;;;;;;;12.85;11.57;;;;;;;;;;4985894;28;20027;-72
2023/09/16 08:24:53;;;;;;;14.15;11.13;;;;;;;;;;4985917;28;20037;-72
2023/09/16 08:27:20;;;;;;;12.20;11.00;;;;;;;;;;4983569;28;20062;-73
2023/09/16 08:29:46;;;;;;;12.25;11.15;;;;;;;;;;4983575;28;20045;-71
2023/09/16 08:32:11;;;;;;;11.43;10.38;;;;;;;;;;4981327;28;20027;-72
2023/09/16 08:34:37;;;;;;;14.32;10.93;;;;;;;;;;4979837;28;20088;-72
2023/09/16 08:37:03;;;;;;;11.70;10.65;;;;;;;;;;4999779;28;20587;-72
2023/09/16 08:39:28;;;;;;;12.73;10.52;;;;;;;;;;4981364;28;20065;-73
2023/09/16 08:42:09;;;;;;;12.10;11.10;;;;;;;;;;4981713;28;20479;-72
2023/09/16 08:44:37;;;;;;;11.90;10.82;;;;;;;;;;4983322;28;20251;-72
2023/09/16 08:47:32;;;;;;;12.25;11.15;;;;;;;;;;4985317;28;20058;-71
2023/09/16 08:50:09;;;;;;;12.20;11.02;;;;;;;;;;4999095;28;20030;-72
2023/09/16 08:52:51;;;;;;;11.60;10.63;;;;;;;;;;4981894;28;20030;-72
2023/09/16 08:55:18;;;;;;;11.27;10.15;;;;;;;;;;4982828;28;20433;-72
2023/09/16 08:57:53;;;;;;;10.40;9.60;;;;;;;;;;4982141;28;20416;-72
2023/09/16 09:00:20;;;;;;;11.50;10.40;;;;;;;;;;4982482;28;20054;-71
2023/09/16 09:02:46;;;;;;;11.23;10.02;;;;;;;;;;4980740;28;20108;-72
2023/09/16 09:05:12;;;;;;;11.18;10.20;;;;;;;;;;4983072;28;20042;-72
2023/09/16 09:07:40;;;;;;;11.82;10.30;;;;;;;;;;4980906;28;20045;-72
2023/09/16 09:10:07;;;;;;;11.23;10.13;;;;;;;;;;4977723;28;20031;-73
2023/09/16 09:12:39;;;;;;;12.05;10.70;;;;;;;;;;4982677;28;20038;-72
2023/09/16 09:15:10;;;;;;;11.48;10.48;;;;;;;;;;4981190;28;20027;-73
2023/09/16 09:17:42;;;;;;;10.85;9.88;;;;;;;;;;4979352;28;20056;-71
2023/09/16 09:20:11;;;;;;;10.57;9.57;;;;;;;;;;4981354;28;20062;-72
2023/09/16 09:22:39;;;;;;;11.38;9.80;;;;;;;;;;4998440;28;20038;-73
2023/09/16 09:25:06;;;;;;;10.85;9.75;;;;;;;;;;4982753;28;20525;-72
2023/09/16 09:27:32;;;;;;;10.30;9.50;;;;;;;;;;4979986;28;20061;-71
2023/09/16 09:29:58;;;;;;;10.40;9.60;;;;;;;;;;4982066;28;20536;-71
2023/09/16 09:32:29;;;;;;;9.90;9.20;;;;;;;;;;4981583;28;20096;-72
2023/09/16 09:34:54;;;;;;;10.70;9.70;;;;;;;;;;4995886;28;20038;-70
2023/09/16 09:37:20;;;;;;;10.00;9.20;;;;;;;;;;4982129;28;20057;-72
2023/09/16 09:39:46;;;;;;;9.95;9.00;;;;;;;;;;4982803;28;20042;-71
2023/09/16 09:42:21;;;;;;;10.10;9.20;;;;;;;;;;4979716;28;20566;-72
2023/09/16 09:44:47;;;;;;;9.73;8.93;;;;;;;;;;4982435;28;20399;-72
2023/09/16 09:47:15;;;;;;;9.63;8.82;;;;;;;;;;4981644;28;20031;-71
2023/09/16 09:49:42;;;;;;;9.43;8.68;;;;;;;;;;4980648;28;20101;-72
2023/09/16 09:52:08;;;;;;;9.23;8.45;;;;;;;;;;4979131;28;20060;-72
2023/09/16 09:54:34;;;;;;;9.50;8.68;;;;;;;;;;4981510;28;20043;-72
2023/09/16 09:57:04;;;;;;;9.45;8.70;;;;;;;;;;4982420;28;20038;-71
2023/09/16 09:59:29;;;;;;;8.55;7.85;;;;;;;;;;4979259;28;20506;-72
2023/09/16 10:01:55;;;;;;;8.65;7.95;;;;;;;;;;4979437;28;20125;-71
2023/09/16 10:04:20;;;;;;;8.13;7.43;;;;;;;;;;4981512;28;20041;-71
2023/09/16 10:06:46;;;;;;;8.40;7.70;;;;;;;;;;4981406;28;20058;-72
2023/09/16 10:09:12;;;;;;;7.65;7.07;;;;;;;;;;4979187;28;20521;-72
2023/09/16 10:11:38;;;;;;;7.88;7.30;;;;;;;;;;4978454;28;20034;-71
2023/09/16 10:14:03;;;;;;;7.82;7.10;;;;;;;;;;4981336;28;20511;-72
2023/09/16 10:16:30;;;;;;;7.53;7.03;;;;;;;;;;4980044;28;20044;-71
2023/09/16 10:18:57;;;;;;;8.00;7.25;;;;;;;;;;4981901;28;20479;-72
2023/09/16 10:21:23;;;;;;;7.20;6.70;;;;;;;;;;4980231;28;20066;-71
2023/09/16 10:23:50;;;;;;;7.15;6.65;;;;;;;;;;4981247;28;20038;-71
2023/09/16 10:26:16;;;;;;;7.65;7.15;;;;;;;;;;4979545;28;20034;-73
2023/09/16 10:28:46;;;;;;;7.35;6.85;;;;;;;;;;4974580;28;20042;-71
2023/09/16 10:31:12;;;;;;;7.50;6.90;;;;;;;;;;4977264;28;20030;-71
2023/09/16 10:33:40;;;;;;;7.93;7.15;;;;;;;;;;4980275;28;20031;-72
2023/09/16 10:36:15;;;;;;;8.27;7.57;;;;;;;;;;4984571;28;20057;-72
2023/09/16 10:38:42;;;;;;;8.38;7.65;;;;;;;;;;4978626;28;20062;-72
2023/09/16 10:41:09;;;;;;;8.00;7.30;;;;;;;;;;4980403;28;20040;-72
2023/09/16 10:43:35;;;;;;;8.40;7.80;;;;;;;;;;4979154;28;20104;-72
2023/09/16 10:46:01;;;;;;;7.93;7.43;;;;;;;;;;4980981;28;20041;-72
2023/09/16 10:48:26;;;;;;;9.18;7.97;;;;;;;;;;4978731;28;20042;-72
2023/09/16 10:50:57;;;;;;;8.27;7.68;;;;;;;;;;4980161;28;20113;-72
2023/09/16 10:53:29;;;;;;;8.45;7.75;;;;;;;;;;4978088;28;20455;-72
2023/09/16 10:56:24;;;;;;;8.38;7.78;;;;;;;;;;4982003;28;20034;-72
2023/09/16 10:59:10;;;;;;;8.43;7.80;;;;;;;;;;4979003;28;20030;-72
2023/09/16 11:01:55;;;;;;;8.20;7.50;;;;;;;;;;4980453;28;20165;-72
2023/09/16 11:04:24;;;;;;;8.10;7.50;;;;;;;;;;4979630;28;20028;-72
2023/09/16 11:06:52;;;;;;;8.07;7.45;;;;;;;;;;4980897;28;20106;-72
2023/09/16 11:09:21;;;;;;;8.68;8.02;;;;;;;;;;4981163;28;20054;-72
2023/09/16 11:11:48;;;;;;;8.50;7.90;;;;;;;;;;4981234;28;20030;-72
2023/09/16 11:14:15;;;;;;;9.07;8.38;;;;;;;;;;4981679;28;20046;-72
2023/09/16 11:16:43;;;;;;;8.75;7.95;;;;;;;;;;4979788;28;20125;-72
2023/09/16 11:19:13;;;;;;;8.10;7.50;;;;;;;;;;4982461;28;20116;-72
2023/09/16 11:21:39;;;;;;;8.70;8.00;;;;;;;;;;4980746;28;20037;-72
2023/09/16 11:24:05;;;;;;;8.30;7.70;;;;;;;;;;4981936;28;20121;-73
2023/09/16 11:26:37;;;;;;;8.25;7.65;;;;;;;;;;4986352;28;20061;-71
2023/09/16 11:29:20;;;;;;;8.65;7.95;;;;;;;;;;4987132;28;20022;-72
2023/09/16 11:31:45;;;;;;;8.60;7.90;;;;;;;;;;4982408;28;20888;-73
2023/09/16 11:34:12;;;;;;;8.68;7.93;;;;;;;;;;4982264;28;20035;-72
2023/09/16 11:36:45;;;;;;;8.05;7.35;;;;;;;;;;4980865;28;20026;-72
2023/09/16 11:39:10;;;;;;;8.35;7.55;;;;;;;;;;4996747;28;20069;-71
2023/09/16 11:41:36;;;;;;;8.25;7.40;;;;;;;;;;4981898;28;20034;-72
2023/09/16 11:44:12;;;;;;;8.35;7.75;;;;;;;;;;4981868;28;20034;-72
2023/09/16 11:46:42;;;;;;;8.40;7.70;;;;;;;;;;4989429;28;20053;-73
2023/09/16 11:49:08;;;;;;;8.43;7.75;;;;;;;;;;4959222;28;20093;-70
2023/09/16 11:51:50;;;;;;;8.05;7.45;;;;;;;;;;4970351;28;20121;-72
2023/09/16 11:54:19;;;;;;;8.20;7.63;;;;;;;;;;4990068;28;20117;-70
2023/09/16 11:56:46;;;;;;;9.10;7.90;;;;;;;;;;5003147;28;20166;-72
2023/09/16 11:59:12;;;;;;;8.80;8.20;;;;;;;;;;4999195;28;20054;-74
2023/09/16 12:01:44;;;;;;;8.00;7.45;;;;;;;;;;4983354;28;20030;-73
2023/09/16 12:04:15;;;;;;;7.53;7.03;;;;;;;;;;4984894;28;20034;-71
2023/09/16 12:06:42;;;;;;;8.10;7.38;;;;;;;;;;4977762;28;20093;-72
2023/09/16 12:09:15;;;;;;;8.43;7.80;;;;;;;;;;4987799;28;20042;-73
2023/09/16 12:11:40;;;;;;;8.90;8.10;;;;;;;;;;5001896;28;20136;-72
2023/09/16 12:14:07;;;;;;;8.70;8.10;;;;;;;;;;4968114;28;20054;-73
2023/09/16 12:16:35;;;;;;;8.57;7.97;;;;;;;;;;4980579;28;20052;-72
2023/09/16 12:19:01;;;;;;;;;;;;;;;;;;4981853;28;20037;-73
2023/09/16 12:21:27;;;;;;;8.18;7.50;;;;;;;;;;4984013;28;19918;-73
2023/09/16 12:23:53;;;;;;;8.07;7.28;;;;;;;;;;4985909;28;20118;-72
2023/09/16 12:26:18;;;;;;;8.18;7.57;;;;;;;;;;4982458;28;20467;-73
2023/09/16 12:28:44;;;;;;;7.70;7.20;;;;;;;;;;4983073;28;20045;-74
2023/09/16 12:31:11;;;;;;;7.57;7.07;;;;;;;;;;4986020;28;20065;-72
2023/09/16 12:33:40;;;;;;;7.82;7.32;;;;;;;;;;4981849;28;20032;-73
2023/09/16 12:36:06;;;;;;;7.82;7.32;;;;;;;;;;4981986;28;20042;-74
2023/09/16 12:38:37;;;;;;;7.50;7.00;;;;;;;;;;4999491;28;20054;-76
2023/09/16 12:41:03;;;;;;;7.00;6.60;;;;;;;;;;5001609;28;20034;-73
2023/09/16 12:43:30;;;;;;;7.47;6.97;;;;;;;;;;4981965;28;20395;-72
2023/09/16 12:46:01;;;;;;;7.53;6.90;;;;;;;;;;4983536;28;20030;-72
2023/09/16 12:48:27;;;;;;;7.57;7.07;;;;;;;;;;4985629;28;20042;-75
2023/09/16 12:50:56;;;;;;;7.15;6.75;;;;;;;;;;4987062;28;20101;-71
2023/09/16 12:53:25;;;;;;;7.18;6.68;;;;;;;;;;4987447;28;20029;-75
2023/09/16 12:56:02;;;;;;;7.32;6.70;;;;;;;;;;5004390;28;20125;-71
2023/09/16 12:58:27;;;;;;;7.22;6.82;;;;;;;;;;4988391;28;20069;-70
2023/09/16 13:00:53;;;;;;;7.50;6.90;;;;;;;;;;4986206;28;20660;-72
2023/09/16 13:03:23;;;;;;;6.88;6.38;;;;;;;;;;4984566;28;20043;-72
2023/09/16 13:05:58;;;;;;;6.85;6.43;;;;;;;;;;4987025;28;20042;-71
2023/09/16 13:08:26;;;;;;;7.60;7.10;;;;;;;;;;4983660;28;20510;-71
2023/09/16 13:10:56;;;;;;;7.25;6.85;;;;;;;;;;4980119;28;20058;-72
2023/09/16 13:13:22;;;;;;;7.03;6.63;;;;;;;;;;4983949;28;20546;-71
2023/09/16 13:15:49;;;;;;;7.63;7.13;;;;;;;;;;4979920;28;20121;-72
2023/09/16 13:18:15;;;;;;;7.63;7.05;;;;;;;;;;4974706;28;20029;-72
2023/09/16 13:20:41;;;;;;;6.78;6.38;;;;;;;;;;4981133;28;20038;-72
2023/09/16 13:23:08;;;;;;;7.40;6.80;;;;;;;;;;4981126;28;20132;-71
2023/09/16 13:25:43;;;;;;;6.90;6.43;;;;;;;;;;4977246;28;20038;-72
2023/09/16 13:28:11;;;;;;;7.20;6.70;;;;;;;;;;4981847;28;20061;-72
2023/09/16 13:30:38;;;;;;;7.18;6.78;;;;;;;;;;4981430;28;20069;-71
2023/09/16 13:33:05;;;;;;;7.53;7.00;;;;;;;;;;4982205;28;20026;-72
2023/09/16 13:35:33;;;;;;;7.53;6.97;;;;;;;;;;4979444;28;20146;-72
2023/09/16 13:37:58;;;;;;;7.18;6.68;;;;;;;;;;4983720;28;20066;-72
2023/09/16 13:40:25;;;;;;;7.03;6.63;;;;;;;;;;4982557;28;20066;-72
2023/09/16 13:42:52;;;;;;;7.28;6.75;;;;;;;;;;4981086;28;20038;-71
2023/09/16 13:45:19;;;;;;;7.60;7.18;;;;;;;;;;4983083;28;20503;-71
2023/09/16 13:48:11;;;;;;;7.90;7.20;;;;;;;;;;4981724;28;20035;-71
2023/09/16 13:50:42;;;;;;;7.43;6.90;;;;;;;;;;4980286;28;20422;-72
2023/09/16 13:53:12;;;;;;;7.82;7.28;;;;;;;;;;4983124;28;20030;-71
2023/09/16 13:55:39;;;;;;;7.93;7.43;;;;;;;;;;4982459;28;20042;-72
2023/09/16 13:58:04;;;;;;;8.13;7.60;;;;;;;;;;4983486;28;20538;-72
2023/09/16 14:00:31;;;;;;;7.45;7.05;;;;;;;;;;4980772;28;20034;-72
2023/09/16 14:02:57;;;;;;;7.60;7.05;;;;;;;;;;4999076;28;20038;-71
2023/09/16 14:05:25;;;;;;;7.40;6.90;;;;;;;;;;4981707;28;20040;-72
2023/09/16 14:07:53;;;;;;;7.80;7.20;;;;;;;;;;5001728;28;20607;-72
2023/09/16 14:10:19;;;;;;;7.45;7.05;;;;;;;;;;4996664;28;20093;-75
2023/09/16 14:12:45;;;;;;;8.75;6.95;;;;;;;;;;4980869;28;20106;-72
2023/09/16 14:15:10;;;;;;;8.13;7.38;;;;;;;;;;4982677;28;20503;-73
2023/09/16 14:17:36;;;;;;;8.32;7.38;;;;;;;;;;4981511;28;20054;-72
2023/09/16 14:20:03;;;;;;;7.35;6.85;;;;;;;;;;5001757;28;20040;-71
2023/09/16 14:22:29;;;;;;;7.85;7.35;;;;;;;;;;4985110;28;20569;-73
2023/09/16 14:24:55;;;;;;;7.65;7.15;;;;;;;;;;4999323;28;20042;-71
2023/09/16 14:27:23;;;;;;;7.25;6.65;;;;;;;;;;4995885;28;20034;-72
2023/09/16 14:29:50;;;;;;;7.60;7.10;;;;;;;;;;4982485;28;21513;-72